createdAt,value
2022-11-10T00:05:10.194Z,19.80
2022-11-10T00:10:21.361Z,19.73
2022-11-10T00:15:50.090Z,24.07
2022-11-10T00:21:07.056Z,25.83
2022-11-10T00:26:19.199Z,23.90
2022-11-10T00:31:30.275Z,24.13
2022-11-10T00:36:43.094Z,17.70
2022-11-10T00:41:54.496Z,18.97
2022-11-10T00:47:06.123Z,15.97
2022-11-10T00:52:18.477Z,16.80
2022-11-10T00:57:29.792Z,13.77
2022-11-10T01:02:41.037Z,18.60
2022-11-10T01:07:53.507Z,17.90
2022-11-10T01:13:04.623Z,16.30
2022-11-10T01:18:15.836Z,18.47
2022-11-10T01:23:28.497Z,19.47
2022-11-10T01:28:39.382Z,26.10
2022-11-10T01:33:50.704Z,18.83
2022-11-10T01:39:03.184Z,23.73
2022-11-10T01:44:15.690Z,26.13
2022-11-10T01:49:27.772Z,20.63
2022-11-10T01:54:41.823Z,26.60
2022-11-10T01:59:52.772Z,28.33
2022-11-10T02:05:04.993Z,22.83
2022-11-10T02:10:18.357Z,21.53
2022-11-10T02:15:29.764Z,21.63
2022-11-10T02:20:45.065Z,24.10
2022-11-10T02:25:56.296Z,24.43
2022-11-10T02:31:09.285Z,23.80
2022-11-10T02:36:21.831Z,25.87
2022-11-10T02:41:33.077Z,27.73
2022-11-10T02:46:44.289Z,26.40
2022-11-10T02:51:56.977Z,31.27
2022-11-10T02:57:08.600Z,26.47
2022-11-10T03:02:19.936Z,28.47
2022-11-10T03:07:32.477Z,27.00
2022-11-10T03:12:43.679Z,25.30
2022-11-10T03:17:54.930Z,33.20
2022-11-10T03:23:07.723Z,34.57
2022-11-10T03:28:18.855Z,29.80
2022-11-10T03:33:30.257Z,35.03
2022-11-10T03:38:42.967Z,32.57
2022-11-10T03:43:54.372Z,29.53
2022-11-10T03:49:05.854Z,35.87
2022-11-10T03:54:18.225Z,29.63
2022-11-10T03:59:29.431Z,26.03
2022-11-10T04:04:58.203Z,32.43
2022-11-10T04:10:11.214Z,31.17
2022-11-10T04:15:40.014Z,79.50
2022-11-10T04:20:51.675Z,146.67
2022-11-10T04:26:23.727Z,92.40
2022-11-10T04:31:37.363Z,182.30
2022-11-10T04:36:48.572Z,317.03
2022-11-10T04:42:02.851Z,395.27
2022-11-10T04:47:14.277Z,56.30
2022-11-10T04:52:25.715Z,188.83
2022-11-10T04:57:38.272Z,30.70
2022-11-10T05:02:49.602Z,24.90
2022-11-10T05:08:01.137Z,25.80
2022-11-10T05:13:13.804Z,21.77
2022-11-10T05:18:25.260Z,26.97
2022-11-10T05:23:39.480Z,28.37
2022-11-10T05:28:52.199Z,31.87
2022-11-10T05:34:03.842Z,59.57
2022-11-10T05:39:14.823Z,152.70
2022-11-10T05:44:27.480Z,242.03
2022-11-10T05:49:38.890Z,172.13
2022-11-10T05:54:49.995Z,48.07
2022-11-10T06:00:02.447Z,39.43
2022-11-10T06:05:13.548Z,45.40
2022-11-10T06:10:24.707Z,36.87
2022-11-10T06:15:37.433Z,28.50
2022-11-10T06:20:48.611Z,33.10
2022-11-10T06:25:59.462Z,43.37
2022-11-10T06:31:12.062Z,83.30
2022-11-10T06:36:23.438Z,92.57
2022-11-10T06:41:34.728Z,90.77
2022-11-10T06:46:47.085Z,81.53
2022-11-10T06:51:58.388Z,83.37
2022-11-10T06:57:09.632Z,71.83
2022-11-10T07:02:22.621Z,54.43
2022-11-10T07:07:34.023Z,61.93
2022-11-10T07:12:45.289Z,69.20
2022-11-10T07:17:57.828Z,71.63
2022-11-10T07:23:09.357Z,67.43
2022-11-10T07:28:23.486Z,43.83
2022-11-10T07:33:39.606Z,25.40
2022-11-10T07:38:50.902Z,17.77
2022-11-10T07:44:02.332Z,8.80
2022-11-10T07:49:14.778Z,8.63
2022-11-10T07:54:26.135Z,7.30
2022-11-10T07:59:37.482Z,7.87
2022-11-10T08:04:50.146Z,8.60
2022-11-10T08:10:01.428Z,7.83
2022-11-10T08:15:12.590Z,6.57
2022-11-10T08:20:25.211Z,5.43
2022-11-10T08:25:37.164Z,5.13
2022-11-10T08:30:49.052Z,10.07
2022-11-10T08:36:02.230Z,4.57
2022-11-10T08:41:13.174Z,4.17
2022-11-10T08:46:24.378Z,7.77
2022-11-10T08:51:39.205Z,5.30
2022-11-10T08:56:50.653Z,6.93
2022-11-10T09:02:01.981Z,8.10
2022-11-10T09:07:14.348Z,9.00
2022-11-10T09:12:25.509Z,8.80
2022-11-10T09:17:36.964Z,8.20
2022-11-10T09:22:49.353Z,11.73
2022-11-10T09:28:00.731Z,10.83
2022-11-10T09:33:12.145Z,10.00
2022-11-10T09:38:25.051Z,8.90
2022-11-10T09:43:40.663Z,8.97
2022-11-10T09:48:53.146Z,10.20
2022-11-10T09:54:06.954Z,7.90
2022-11-10T09:59:20.439Z,9.37
2022-11-10T10:04:36.018Z,8.50
2022-11-10T10:09:52.486Z,9.03
2022-11-10T10:15:16.508Z,7.53
2022-11-10T10:20:32.704Z,7.20
2022-11-10T10:25:46.094Z,9.07
2022-11-10T10:31:02.350Z,8.13
2022-11-10T10:36:17.146Z,6.73
2022-11-10T10:41:30.431Z,8.00
2022-11-10T10:46:46.574Z,7.10
2022-11-10T10:52:03.215Z,5.50
2022-11-10T10:57:23.654Z,5.13
2022-11-10T11:02:34.793Z,5.37
2022-11-10T11:07:55.630Z,5.40
2022-11-10T11:13:22.305Z,5.17
2022-11-10T11:18:33.947Z,3.60
2022-11-10T11:23:58.204Z,5.60
2022-11-10T11:29:17.522Z,7.03
2022-11-10T11:34:32.203Z,4.83
2022-11-10T11:39:47.947Z,7.93
2022-11-10T11:45:08.037Z,4.47
2022-11-10T11:50:25.629Z,5.10
2022-11-10T11:55:43.060Z,5.47
2022-11-10T12:01:01.013Z,13.90
2022-11-10T12:06:18.764Z,7.20
2022-11-10T12:11:36.241Z,8.33
2022-11-10T12:16:54.392Z,5.20
2022-11-10T12:22:10.105Z,4.37
2022-11-10T12:27:26.171Z,5.37
2022-11-10T12:32:41.983Z,4.43
2022-11-10T12:37:54.811Z,5.20
2022-11-10T12:43:07.866Z,4.50
2022-11-10T12:48:21.313Z,3.93
2022-11-10T12:53:33.802Z,5.37
2022-11-10T12:58:44.774Z,3.77
2022-11-10T13:03:58.533Z,3.77
2022-11-10T13:09:22.062Z,2.80
2022-11-10T13:14:32.975Z,3.63
2022-11-10T13:19:53.646Z,4.40
2022-11-10T13:25:23.534Z,4.13
2022-11-10T13:30:38.313Z,4.17
2022-11-10T13:35:55.834Z,3.83
2022-11-10T13:41:20.892Z,5.27
2022-11-10T13:46:34.142Z,4.50
2022-11-10T13:51:49.775Z,3.50
2022-11-10T13:57:06.550Z,4.07
2022-11-10T14:02:36.364Z,3.70
2022-11-10T14:07:50.099Z,4.40
2022-11-10T14:13:05.664Z,4.60
2022-11-10T14:18:18.532Z,3.63
2022-11-10T14:23:34.707Z,5.87
2022-11-10T14:28:45.891Z,4.20
2022-11-10T14:33:58.115Z,5.70
2022-11-10T14:39:10.520Z,3.20
2022-11-10T14:44:23.052Z,5.23
2022-11-10T14:49:33.909Z,6.50
2022-11-10T14:54:47.638Z,6.30
2022-11-10T14:59:58.708Z,6.23
2022-11-10T15:05:13.644Z,8.50
2022-11-10T15:10:27.310Z,11.40
2022-11-10T15:15:38.277Z,6.57
2022-11-10T15:20:57.511Z,6.90
2022-11-10T15:26:20.165Z,7.60
2022-11-10T15:31:32.826Z,12.97
2022-11-10T15:36:43.916Z,8.00
2022-11-10T15:41:59.290Z,8.87
2022-11-10T15:47:11.412Z,8.37
2022-11-10T15:52:23.261Z,32.37
2022-11-10T15:57:35.654Z,28.27
2022-11-10T16:02:46.791Z,16.80
2022-11-10T16:07:58.225Z,11.07
2022-11-10T16:13:13.201Z,10.57
2022-11-10T16:18:25.976Z,7.37
2022-11-10T16:23:37.908Z,9.77
2022-11-10T16:28:50.795Z,8.27
2022-11-10T16:34:01.820Z,16.00
2022-11-10T16:39:13.828Z,16.60
2022-11-10T16:44:25.979Z,14.43
2022-11-10T16:49:37.497Z,10.27
2022-11-10T16:54:48.573Z,11.23
2022-11-10T17:00:01.293Z,12.57
2022-11-10T17:05:14.041Z,15.63
2022-11-10T17:10:25.939Z,15.07
2022-11-10T17:15:38.619Z,11.93
2022-11-10T17:20:50.874Z,15.03
2022-11-10T17:26:02.432Z,329.27
2022-11-10T17:31:15.804Z,108.23
2022-11-10T17:36:26.817Z,11.00
2022-11-10T17:41:38.075Z,17.47
2022-11-10T17:46:50.768Z,17.90
2022-11-10T17:52:02.266Z,9.30
2022-11-10T17:57:13.613Z,11.40
2022-11-10T18:02:26.257Z,30.03
2022-11-10T18:07:37.530Z,20.03
2022-11-10T18:12:48.682Z,21.13
2022-11-10T18:18:01.449Z,47.63
2022-11-10T18:23:13.127Z,13.80
2022-11-10T18:28:24.450Z,29.33
2022-11-10T18:33:36.981Z,56.83
2022-11-10T18:38:48.120Z,13.93
2022-11-10T18:43:59.024Z,20.57
2022-11-10T18:49:11.557Z,69.77
2022-11-10T18:54:23.415Z,71.80
2022-11-10T18:59:34.327Z,36.27
2022-11-10T19:04:50.920Z,27.50
2022-11-10T19:10:05.025Z,45.83
2022-11-10T19:15:16.119Z,13.17
2022-11-10T19:20:28.745Z,9.13
2022-11-10T19:25:39.820Z,9.57
2022-11-10T19:30:51.067Z,9.47
2022-11-10T19:36:04.710Z,10.33
2022-11-10T19:41:16.684Z,10.67
2022-11-10T19:46:29.256Z,7.03
2022-11-10T19:51:41.765Z,9.03
2022-11-10T19:56:53.018Z,15.87
2022-11-10T20:02:04.855Z,10.80
2022-11-10T20:07:35.358Z,8.30
2022-11-10T20:12:46.619Z,9.73
2022-11-10T20:17:58.063Z,8.83
2022-11-10T20:23:12.722Z,9.10
2022-11-10T20:28:23.585Z,14.43
2022-11-10T20:33:34.949Z,12.47
2022-11-10T20:38:47.849Z,11.10
2022-11-10T20:43:59.048Z,10.23
2022-11-10T20:49:10.660Z,8.20
2022-11-10T20:54:23.453Z,9.00
2022-11-10T20:59:34.839Z,9.30
2022-11-10T21:04:46.377Z,8.97
2022-11-10T21:09:59.075Z,12.17
2022-11-10T21:15:10.569Z,12.87
2022-11-10T21:20:21.660Z,14.70
2022-11-10T21:25:34.122Z,19.20
2022-11-10T21:30:46.438Z,17.40
2022-11-10T21:35:57.381Z,19.00
2022-11-10T21:41:10.122Z,18.93
2022-11-10T21:46:21.469Z,20.60
2022-11-10T21:51:33.174Z,15.90
2022-11-10T21:56:45.760Z,18.10
2022-11-10T22:01:57.052Z,15.60
2022-11-10T22:07:26.433Z,16.30
2022-11-10T22:12:56.175Z,13.53
2022-11-10T22:18:30.161Z,14.63
2022-11-10T22:23:58.990Z,16.10
2022-11-10T22:29:12.106Z,19.43
2022-11-10T22:34:23.405Z,20.00
2022-11-10T22:39:52.213Z,10.90
2022-11-10T22:45:05.179Z,9.90
2022-11-10T22:50:16.622Z,14.17
2022-11-10T22:55:27.947Z,22.30
2022-11-10T23:00:40.248Z,19.30
2022-11-10T23:05:56.053Z,25.03
2022-11-10T23:11:09.091Z,39.03
2022-11-10T23:16:23.028Z,82.70
2022-11-10T23:21:33.974Z,64.67
2022-11-10T23:26:45.147Z,84.07
2022-11-10T23:31:57.861Z,93.00
2022-11-10T23:37:09.193Z,63.47
2022-11-10T23:42:20.410Z,46.60
2022-11-10T23:47:33.091Z,77.50
2022-11-10T23:52:44.259Z,75.50
2022-11-10T23:57:55.474Z,60.47
